createdAt,value
2023-05-05T00:01:45.301Z,99817.94
2023-05-05T00:04:12.004Z,99811.03
2023-05-05T00:06:38.577Z,99806.69
2023-05-05T00:09:05.204Z,99812.84
2023-05-05T00:11:31.851Z,99811.13
2023-05-05T00:13:58.424Z,99819.81
2023-05-05T00:16:25.237Z,99817.28
2023-05-05T00:18:51.853Z,99803.44
2023-05-05T00:21:19.802Z,99803.44
2023-05-05T00:23:47.947Z,99810.41
2023-05-05T00:26:16.389Z,99810.41
2023-05-05T00:28:44.591Z,99807.78
2023-05-05T00:31:12.385Z,99803.50
2023-05-05T00:33:40.561Z,99800.00
2023-05-05T00:36:08.769Z,99795.69
2023-05-05T00:38:37.018Z,99801.81
2023-05-05T00:41:04.748Z,99801.81
2023-05-05T00:43:32.524Z,99803.50
2023-05-05T00:46:04.959Z,99800.94
2023-05-05T00:48:33.880Z,99796.59
2023-05-05T00:51:01.506Z,99801.84
2023-05-05T00:53:30.113Z,99801.84
2023-05-05T00:55:58.962Z,99798.41
2023-05-05T00:58:27.190Z,99795.81
2023-05-05T01:00:53.729Z,99795.06
2023-05-05T01:03:20.932Z,99795.94
2023-05-05T01:11:31.085Z,99784.75
2023-05-05T01:16:41.551Z,99789.16
2023-05-05T01:21:48.441Z,99790.09
2023-05-05T01:32:27.359Z,99787.78
2023-05-05T01:34:57.659Z,99784.59
2023-05-05T01:37:32.241Z,99786.19
2023-05-05T01:40:05.142Z,99780.09
2023-05-05T01:42:33.919Z,99781.88
2023-05-05T01:45:03.606Z,99785.34
2023-05-05T01:47:31.892Z,99783.63
2023-05-05T01:49:59.823Z,99781.94
2023-05-05T01:52:28.086Z,99781.09
2023-05-05T01:54:57.542Z,99778.56
2023-05-05T01:57:26.607Z,99775.06
2023-05-05T01:59:53.675Z,99777.72
2023-05-05T02:02:21.742Z,99780.31
2023-05-05T02:04:51.190Z,99782.09
2023-05-05T02:07:18.718Z,99787.31
2023-05-05T02:09:47.136Z,99774.34
2023-05-05T02:12:14.998Z,99786.50
2023-05-05T02:14:42.942Z,99777.88
2023-05-05T02:17:11.658Z,99777.88
2023-05-05T02:19:43.916Z,99788.28
2023-05-05T02:22:10.777Z,99782.19
2023-05-05T02:24:37.385Z,99782.19
2023-05-05T02:27:07.378Z,99788.28
2023-05-05T02:29:36.931Z,99778.13
2023-05-05T02:32:17.334Z,99779.78
2023-05-05T02:34:46.331Z,99774.47
2023-05-05T02:37:19.856Z,99775.38
2023-05-05T02:39:58.363Z,99778.00
2023-05-05T02:42:29.979Z,99778.94
2023-05-05T02:44:59.257Z,99780.69
2023-05-05T02:47:41.716Z,99777.34
2023-05-05T02:50:09.340Z,99781.69
2023-05-05T02:52:36.421Z,99782.56
2023-05-05T02:55:04.366Z,99784.34
2023-05-05T02:57:55.867Z,99786.97
2023-05-05T03:03:14.262Z,99791.31
2023-05-05T03:06:02.086Z,99798.31
2023-05-05T03:08:34.026Z,99798.31
2023-05-05T03:11:06.614Z,99787.09
2023-05-05T03:13:37.267Z,99794.03
2023-05-05T03:16:06.990Z,99782.75
2023-05-05T03:18:35.462Z,99786.25
2023-05-05T03:21:08.587Z,99785.38
2023-05-05T03:23:36.282Z,99787.13
2023-05-05T03:26:02.835Z,99789.75
2023-05-05T03:28:29.448Z,99789.78
2023-05-05T03:30:56.485Z,99790.63
2023-05-05T03:33:23.084Z,99794.09
2023-05-05T03:35:49.604Z,99794.94
2023-05-05T03:38:16.183Z,99790.56
2023-05-05T03:40:44.465Z,99794.84
2023-05-05T03:43:11.686Z,99790.50
2023-05-05T03:45:38.749Z,99794.81
2023-05-05T03:48:06.097Z,99795.72
2023-05-05T03:50:32.684Z,99788.81
2023-05-05T03:52:59.225Z,99781.84
2023-05-05T03:55:25.909Z,99790.50
2023-05-05T03:57:52.421Z,99791.31
2023-05-05T04:00:19.451Z,99793.06
2023-05-05T04:02:46.111Z,99792.19
2023-05-05T04:05:12.721Z,99787.91
2023-05-05T04:07:39.271Z,99794.00
2023-05-05T04:10:07.181Z,99787.91
2023-05-05T04:12:33.894Z,99793.97
2023-05-05T04:15:00.529Z,99794.00
2023-05-05T04:17:27.105Z,99800.91
2023-05-05T04:19:54.000Z,99800.91
2023-05-05T04:22:20.559Z,99798.31
2023-05-05T04:24:47.579Z,99799.19
2023-05-05T04:27:14.130Z,99803.50
2023-05-05T04:29:40.739Z,99803.50
2023-05-05T04:32:07.349Z,99810.44
2023-05-05T04:34:33.884Z,99801.78
2023-05-05T04:37:00.475Z,99803.50
2023-05-05T04:39:27.252Z,99804.38
2023-05-05T04:41:53.769Z,99804.38
2023-05-05T04:44:20.340Z,99797.41
2023-05-05T04:46:46.993Z,99793.06
2023-05-05T04:49:13.574Z,99797.41
2023-05-05T04:51:42.360Z,99793.06
2023-05-05T04:54:09.097Z,99792.19
2023-05-05T04:56:35.925Z,99790.47
2023-05-05T04:59:02.682Z,99795.69
2023-05-05T05:01:29.311Z,99796.59
2023-05-05T05:03:56.042Z,99803.53
2023-05-05T05:06:22.885Z,99801.84
2023-05-05T05:08:50.279Z,99796.63
2023-05-05T05:11:16.808Z,99796.59
2023-05-05T05:13:43.449Z,99796.59
2023-05-05T05:16:10.052Z,99796.59
2023-05-05T05:18:36.624Z,99802.66
2023-05-05T05:21:03.610Z,99804.41
2023-05-05T05:23:30.326Z,99813.91
2023-05-05T05:25:57.237Z,99809.59
2023-05-05T05:28:23.918Z,99814.78
2023-05-05T05:30:50.672Z,99813.84
2023-05-05T05:33:17.206Z,99819.03
2023-05-05T05:35:43.712Z,99824.09
2023-05-05T05:38:10.261Z,99827.47
2023-05-05T05:40:37.165Z,99823.97
2023-05-05T05:43:04.197Z,99818.69
2023-05-05T05:45:31.048Z,99829.03
2023-05-05T05:47:57.637Z,99821.22
2023-05-05T05:50:27.116Z,99827.34
2023-05-05T05:52:53.676Z,99829.94
2023-05-05T05:55:20.887Z,99827.38
2023-05-05T05:57:47.701Z,99829.03
2023-05-05T06:00:15.964Z,99841.16
2023-05-05T06:02:42.598Z,99836.75
2023-05-05T06:05:09.601Z,99843.63
2023-05-05T06:07:36.183Z,99839.19
2023-05-05T06:10:14.453Z,99837.34
2023-05-05T06:12:49.468Z,99848.50
2023-05-05T06:15:16.061Z,99850.94
2023-05-05T06:17:42.633Z,99845.69
2023-05-05T06:20:10.050Z,99854.31
2023-05-05T06:22:36.706Z,99857.78
2023-05-05T06:25:03.246Z,99860.31
2023-05-05T06:27:29.978Z,99864.56
2023-05-05T06:29:56.547Z,99863.59
2023-05-05T06:32:23.121Z,99866.06
2023-05-05T06:34:49.751Z,99872.91
2023-05-05T06:37:16.253Z,99868.44
2023-05-05T06:39:42.923Z,99869.22
2023-05-05T06:42:09.498Z,99869.19
2023-05-05T06:44:36.511Z,99877.75
2023-05-05T06:47:03.920Z,99874.00
2023-05-05T06:49:30.518Z,99880.75
2023-05-05T06:51:57.050Z,99882.31
2023-05-05T06:54:23.656Z,99883.78
2023-05-05T06:56:50.147Z,99872.25
2023-05-05T06:59:16.690Z,99889.50
2023-05-05T07:01:43.240Z,99885.88
2023-05-05T07:04:10.034Z,99891.81
2023-05-05T07:06:36.653Z,99891.72
2023-05-05T07:09:04.414Z,99895.03
2023-05-05T07:11:30.955Z,99897.53
2023-05-05T07:13:57.496Z,99894.78
2023-05-05T07:16:25.156Z,99899.94
2023-05-05T07:18:51.698Z,99903.38
2023-05-05T07:21:18.261Z,99908.59
2023-05-05T07:23:46.264Z,99900.78
2023-05-05T07:26:12.893Z,99905.03
2023-05-05T07:28:39.421Z,99905.88
2023-05-05T07:31:05.984Z,99902.50
2023-05-05T07:33:32.514Z,99918.19
2023-05-05T07:35:59.056Z,99913.00
2023-05-05T07:38:29.019Z,99908.72
2023-05-05T07:40:56.330Z,99912.25
2023-05-05T07:43:22.882Z,99905.31
2023-05-05T07:45:49.502Z,99906.16
2023-05-05T07:48:16.377Z,99908.78
2023-05-05T07:50:42.979Z,99908.69
2023-05-05T07:53:14.417Z,99906.75
2023-05-05T07:55:41.918Z,99904.84
2023-05-05T07:58:08.747Z,99916.94
2023-05-05T08:00:35.621Z,99912.53
2023-05-05T08:03:02.823Z,99921.03
2023-05-05T08:05:30.284Z,99908.72
2023-05-05T08:08:00.841Z,99914.72
2023-05-05T08:10:27.734Z,99908.56
2023-05-05T08:12:54.958Z,99915.44
2023-05-05T08:15:21.668Z,99916.19
2023-05-05T08:17:50.302Z,99921.31
2023-05-05T08:20:18.005Z,99918.63
2023-05-05T08:22:45.540Z,99919.50
2023-05-05T08:25:13.262Z,99921.25
2023-05-05T08:27:42.373Z,99919.47
2023-05-05T08:30:13.129Z,99914.16
2023-05-05T08:32:39.776Z,99917.53
2023-05-05T08:35:07.600Z,99919.13
2023-05-05T08:37:34.858Z,99917.31
2023-05-05T08:40:01.462Z,99921.72
2023-05-05T08:42:38.107Z,99923.44
2023-05-05T08:45:08.566Z,99930.53
2023-05-05T08:47:36.863Z,99929.66
2023-05-05T08:50:05.699Z,99929.66
2023-05-05T08:52:43.989Z,99934.75
2023-05-05T08:57:56.963Z,99924.88
2023-05-05T09:00:26.436Z,99932.47
2023-05-05T09:02:56.423Z,99927.84
2023-05-05T09:05:23.751Z,99932.91
2023-05-05T09:07:51.068Z,99931.59
2023-05-05T09:10:18.590Z,99931.91
2023-05-05T09:12:45.277Z,99929.56
2023-05-05T09:15:14.698Z,99934.91
2023-05-05T09:17:42.096Z,99934.22
2023-05-05T09:20:13.605Z,99932.94
2023-05-05T09:22:43.726Z,99937.78
2023-05-05T09:25:12.260Z,99933.03
2023-05-05T09:27:42.527Z,99932.75
2023-05-05T09:30:11.082Z,99933.31
2023-05-05T09:32:47.370Z,99929.47
2023-05-05T09:35:14.757Z,99928.00
2023-05-05T09:37:41.800Z,99931.03
2023-05-05T09:40:09.419Z,99927.41
2023-05-05T09:42:37.975Z,99928.66
2023-05-05T09:48:00.362Z,99918.63
2023-05-05T09:50:30.510Z,99931.31
2023-05-05T09:53:00.040Z,99917.41
2023-05-05T09:55:26.607Z,99916.84
2023-05-05T09:57:53.700Z,99917.84
2023-05-05T10:00:21.127Z,99915.44
2023-05-05T10:02:47.820Z,99918.47
2023-05-05T10:05:17.548Z,99919.31
2023-05-05T10:07:46.276Z,99918.59
2023-05-05T10:10:16.195Z,99917.84
2023-05-05T10:12:43.630Z,99918.72
2023-05-05T10:15:12.054Z,99912.13
2023-05-05T10:18:06.745Z,99911.28
2023-05-05T10:20:36.584Z,99915.16
2023-05-05T10:23:06.946Z,99898.19
2023-05-05T10:25:42.191Z,99897.13
2023-05-05T10:28:16.662Z,99895.34
2023-05-05T10:30:46.119Z,99903.59
2023-05-05T10:33:31.677Z,99882.66
2023-05-05T10:36:02.462Z,99891.06
2023-05-05T10:38:31.173Z,99889.91
2023-05-05T10:41:00.232Z,99893.69
2023-05-05T10:43:31.456Z,99881.91
2023-05-05T10:45:59.289Z,99886.75
2023-05-05T10:48:35.971Z,99882.72
2023-05-05T10:51:21.102Z,99883.41
2023-05-05T10:54:00.992Z,99887.88
2023-05-05T10:56:32.713Z,99888.59
2023-05-05T10:59:00.488Z,99900.19
2023-05-05T11:01:31.300Z,99888.50
2023-05-05T11:10:04.005Z,99868.06
2023-05-05T11:12:31.931Z,99869.84
2023-05-05T11:15:38.065Z,99871.22
2023-05-05T11:18:07.995Z,99875.38
2023-05-05T11:25:51.422Z,99867.09
2023-05-05T11:28:20.961Z,99863.59
2023-05-05T11:33:36.080Z,99861.78
2023-05-05T11:36:13.119Z,99859.22
2023-05-05T11:44:31.152Z,99857.16
2023-05-05T11:49:36.634Z,99863.19
2023-05-05T11:52:06.230Z,99859.25
2023-05-05T11:54:35.239Z,99857.03
2023-05-05T11:57:05.292Z,99857.19
2023-05-05T11:59:32.618Z,99854.78
2023-05-05T12:02:00.127Z,99853.81
2023-05-05T12:04:26.763Z,99848.13
2023-05-05T12:06:55.420Z,99852.81
2023-05-05T12:09:23.899Z,99851.66
2023-05-05T12:14:29.983Z,99849.28
2023-05-05T12:16:58.624Z,99846.91
2023-05-05T12:19:30.096Z,99847.28
2023-05-05T12:21:57.144Z,99847.88
2023-05-05T12:24:23.739Z,99847.13
2023-05-05T12:26:50.400Z,99846.09
2023-05-05T12:29:25.511Z,99842.69
2023-05-05T12:31:52.162Z,99841.31
2023-05-05T12:34:19.204Z,99844.94
2023-05-05T12:36:45.994Z,99846.91
2023-05-05T12:39:12.841Z,99840.16
2023-05-05T12:41:39.641Z,99842.03
2023-05-05T12:44:06.727Z,99850.56
2023-05-05T12:46:45.724Z,99843.94
2023-05-05T12:49:12.596Z,99846.03
2023-05-05T12:51:51.746Z,99844.16
2023-05-05T12:54:18.307Z,99845.03
2023-05-05T12:56:47.232Z,99843.94
2023-05-05T13:02:02.876Z,99831.63
2023-05-05T13:04:29.647Z,99835.28
2023-05-05T13:07:16.787Z,99833.88
2023-05-05T13:09:43.946Z,99832.16
2023-05-05T13:12:12.435Z,99826.44
2023-05-05T13:14:40.669Z,99833.53
2023-05-05T13:17:07.649Z,99822.19
2023-05-05T13:19:41.694Z,99822.28
2023-05-05T13:22:10.674Z,99825.69
2023-05-05T13:24:49.890Z,99836.22
2023-05-05T13:27:19.204Z,99839.16
2023-05-05T13:29:46.069Z,99851.72
2023-05-05T13:32:12.709Z,99845.66
2023-05-05T13:34:39.536Z,99848.53
2023-05-05T13:37:06.343Z,99845.97
2023-05-05T13:39:32.927Z,99838.78
2023-05-05T13:41:59.472Z,99839.75
2023-05-05T13:44:26.045Z,99841.50
2023-05-05T13:46:52.782Z,99837.66
2023-05-05T13:49:20.175Z,99837.47
2023-05-05T13:51:47.120Z,99827.91
2023-05-05T13:54:13.976Z,99830.53
2023-05-05T13:56:40.754Z,99826.81
2023-05-05T13:59:07.481Z,99829.66
2023-05-05T14:01:34.117Z,99820.06
2023-05-05T14:04:03.663Z,99827.16
2023-05-05T14:06:32.510Z,99823.84
2023-05-05T14:08:59.181Z,99821.53
2023-05-05T14:11:25.713Z,99809.13
2023-05-05T14:13:52.809Z,99816.25
2023-05-05T14:16:19.606Z,99816.41
2023-05-05T14:18:46.263Z,99821.97
2023-05-05T14:21:12.823Z,99819.03
2023-05-05T14:23:39.420Z,99828.19
2023-05-05T14:26:06.041Z,99839.00
2023-05-05T14:28:32.557Z,99828.19
2023-05-05T14:30:59.153Z,99831.59
2023-05-05T14:33:25.903Z,99826.56
2023-05-05T14:35:52.541Z,99822.16
2023-05-05T14:38:19.156Z,99813.31
2023-05-05T14:40:45.787Z,99812.84
2023-05-05T14:43:12.299Z,99803.53
2023-05-05T14:45:39.008Z,99797.66
2023-05-05T14:48:05.872Z,99804.63
2023-05-05T14:50:32.489Z,99813.56
2023-05-05T14:52:59.087Z,99812.97
2023-05-05T14:55:26.099Z,99807.94
2023-05-05T14:57:52.759Z,99817.72
2023-05-05T15:00:19.520Z,99813.53
2023-05-05T15:02:48.289Z,99813.47
2023-05-05T15:05:15.315Z,99810.94
2023-05-05T15:07:41.897Z,99800.41
2023-05-05T15:10:08.916Z,99819.59
2023-05-05T15:12:35.558Z,99817.03
2023-05-05T15:15:02.194Z,99818.75
2023-05-05T15:17:30.735Z,99834.34
2023-05-05T15:19:57.513Z,99837.00
2023-05-05T15:22:24.062Z,99849.00
2023-05-05T15:24:50.652Z,99857.06
2023-05-05T15:27:18.295Z,99883.84
2023-05-05T15:29:45.221Z,99860.91
2023-05-05T15:32:11.935Z,99870.91
2023-05-05T15:34:38.562Z,99838.28
2023-05-05T15:37:05.156Z,99835.06
2023-05-05T15:39:31.679Z,99838.63
2023-05-05T15:42:02.703Z,99836.00
2023-05-05T15:44:29.924Z,99829.94
2023-05-05T15:46:56.484Z,99829.09
2023-05-05T15:49:23.108Z,99826.66
2023-05-05T15:51:49.753Z,99826.13
2023-05-05T15:54:16.338Z,99828.84
2023-05-05T15:56:42.893Z,99828.06
2023-05-05T15:59:09.561Z,99830.50
2023-05-05T16:01:36.435Z,99831.78
2023-05-05T16:04:03.689Z,99832.31
2023-05-05T16:06:30.761Z,99835.19
2023-05-05T16:08:58.684Z,99831.97
2023-05-05T16:11:26.591Z,99833.75
2023-05-05T16:13:53.512Z,99823.47
2023-05-05T16:16:20.381Z,99827.16
2023-05-05T16:18:47.000Z,99823.13
2023-05-05T16:21:13.873Z,99822.06
2023-05-05T16:23:40.594Z,99820.25
2023-05-05T16:26:07.202Z,99811.19
2023-05-05T16:28:34.313Z,99817.91
2023-05-05T16:31:02.295Z,99822.22
2023-05-05T16:33:29.246Z,99822.84
2023-05-05T16:35:55.998Z,99821.75
2023-05-05T16:38:22.928Z,99831.28
2023-05-05T16:40:49.634Z,99818.59
2023-05-05T16:43:16.429Z,99816.38
2023-05-05T16:45:43.579Z,99813.16
2023-05-05T16:48:10.437Z,99813.53
2023-05-05T16:50:36.996Z,99814.09
2023-05-05T16:53:03.613Z,99824.19
2023-05-05T16:55:30.309Z,99827.13
2023-05-05T16:57:56.965Z,99827.25
2023-05-05T17:00:23.530Z,99832.66
2023-05-05T17:02:50.233Z,99825.78
2023-05-05T17:05:17.606Z,99818.94
2023-05-05T17:07:44.309Z,99819.19
2023-05-05T17:10:11.015Z,99813.50
2023-05-05T17:12:37.609Z,99830.75
2023-05-05T17:15:04.505Z,99831.34
2023-05-05T17:17:31.131Z,99835.63
2023-05-05T17:19:57.766Z,99827.47
2023-05-05T17:22:24.300Z,99838.78
2023-05-05T17:24:50.977Z,99838.53
2023-05-05T17:27:17.568Z,99821.47
2023-05-05T17:29:44.184Z,99824.28
2023-05-05T17:32:11.003Z,99832.34
2023-05-05T17:34:37.660Z,99828.03
2023-05-05T17:37:04.275Z,99834.16
2023-05-05T17:39:31.032Z,99836.78
2023-05-05T17:41:57.583Z,99831.56
2023-05-05T17:44:24.206Z,99829.56
2023-05-05T17:46:50.789Z,99829.47
2023-05-05T17:49:17.406Z,99831.06
2023-05-05T17:51:43.921Z,99829.19
2023-05-05T17:54:10.656Z,99836.00
2023-05-05T17:56:38.068Z,99838.53
2023-05-05T17:59:04.692Z,99840.19
2023-05-05T18:01:31.314Z,99843.53
2023-05-05T18:03:57.918Z,99839.13
2023-05-05T18:06:25.718Z,99840.81
2023-05-05T18:08:52.558Z,99837.28
2023-05-05T18:11:21.205Z,99832.91
2023-05-05T18:13:47.783Z,99834.66
2023-05-05T18:16:14.372Z,99839.00
2023-05-05T18:18:41.357Z,99839.00
2023-05-05T18:21:12.040Z,99839.66
2023-05-05T18:23:39.839Z,99839.53
2023-05-05T18:26:07.287Z,99842.09
2023-05-05T18:28:33.865Z,99841.13
2023-05-05T18:31:00.506Z,99843.16
2023-05-05T18:33:27.059Z,99847.03
2023-05-05T18:35:53.660Z,99846.56
2023-05-05T18:38:20.266Z,99839.16
2023-05-05T18:40:47.201Z,99843.94
2023-05-05T18:43:13.750Z,99853.59
2023-05-05T18:45:40.345Z,99849.47
2023-05-05T18:48:07.011Z,99854.28
2023-05-05T18:50:33.664Z,99857.00
2023-05-05T18:53:00.284Z,99868.63
2023-05-05T18:55:26.834Z,99865.41
2023-05-05T18:57:53.408Z,99864.63
2023-05-05T19:00:20.756Z,99868.19
2023-05-05T19:02:47.357Z,99866.50
2023-05-05T19:05:13.951Z,99860.47
2023-05-05T19:07:40.869Z,99871.94
2023-05-05T19:10:08.380Z,99875.50
2023-05-05T19:12:35.151Z,99878.28
2023-05-05T19:15:01.760Z,99872.38
2023-05-05T19:17:28.376Z,99874.25
2023-05-05T19:19:54.954Z,99871.09
2023-05-05T19:22:23.514Z,99871.16
2023-05-05T19:24:50.082Z,99873.06
2023-05-05T19:27:17.198Z,99872.31
2023-05-05T19:29:44.323Z,99875.91
2023-05-05T19:32:11.160Z,99889.94
2023-05-05T19:34:37.852Z,99889.19
2023-05-05T19:37:04.486Z,99889.25
2023-05-05T19:39:31.334Z,99884.91
2023-05-05T19:41:57.885Z,99885.78
2023-05-05T19:44:24.431Z,99892.75
2023-05-05T19:46:53.039Z,99891.81
2023-05-05T19:49:19.840Z,99903.16
2023-05-05T19:51:49.638Z,99906.69
2023-05-05T19:54:16.326Z,99910.66
2023-05-05T19:56:42.944Z,99907.75
2023-05-05T19:59:09.493Z,99901.59
2023-05-05T20:01:36.287Z,99905.13
2023-05-05T20:04:03.956Z,99910.34
2023-05-05T20:06:30.629Z,99909.47
2023-05-05T20:08:57.235Z,99906.03
2023-05-05T20:11:25.831Z,99913.88
2023-05-05T20:13:53.026Z,99917.34
2023-05-05T20:16:20.057Z,99930.50
2023-05-05T20:18:46.825Z,99926.19
2023-05-05T20:21:14.113Z,99931.56
2023-05-05T20:23:42.826Z,99941.19
2023-05-05T20:26:09.613Z,99941.28
2023-05-05T20:28:36.305Z,99934.34
2023-05-05T20:31:02.970Z,99937.00
2023-05-05T20:33:29.591Z,99933.56
2023-05-05T20:35:56.317Z,99928.44
2023-05-05T20:38:22.982Z,99928.50
2023-05-05T20:40:50.258Z,99936.41
2023-05-05T20:43:16.854Z,99926.88
2023-05-05T20:45:43.492Z,99934.72
2023-05-05T20:48:11.482Z,99928.75
2023-05-05T20:50:38.811Z,99929.66
2023-05-05T20:53:07.954Z,99931.47
2023-05-05T20:55:34.755Z,99925.53
2023-05-05T20:58:01.392Z,99933.38
2023-05-05T21:00:27.960Z,99934.31
2023-05-05T21:02:54.631Z,99941.31
2023-05-05T21:05:21.431Z,99930.94
2023-05-05T21:07:48.000Z,99931.84
2023-05-05T21:10:14.718Z,99928.47
2023-05-05T21:12:41.751Z,99929.41
2023-05-05T21:15:09.253Z,99925.09
2023-05-05T21:17:36.313Z,99927.81
2023-05-05T21:20:02.982Z,99929.66
2023-05-05T21:22:29.638Z,99928.06
2023-05-05T21:25:09.767Z,99929.16
2023-05-05T21:27:36.376Z,99924.81
2023-05-05T21:30:03.013Z,99924.97
2023-05-05T21:32:29.746Z,99924.22
2023-05-05T21:34:56.496Z,99932.97
2023-05-05T21:37:23.033Z,99933.16
2023-05-05T21:39:49.728Z,99923.69
2023-05-05T21:42:16.327Z,99925.56
2023-05-05T21:44:42.954Z,99923.94
2023-05-05T21:47:09.776Z,99925.72
2023-05-05T21:49:36.360Z,99931.88
2023-05-05T21:52:02.994Z,99923.34
2023-05-05T21:54:30.123Z,99923.44
2023-05-05T21:56:56.743Z,99926.16
2023-05-05T21:59:23.331Z,99934.94
2023-05-05T22:01:50.037Z,99928.13
2023-05-05T22:04:16.643Z,99925.63
2023-05-05T22:06:43.211Z,99928.25
2023-05-05T22:09:09.954Z,99923.19
2023-05-05T22:11:36.573Z,99925.00
2023-05-05T22:14:03.127Z,99925.13
2023-05-05T22:16:29.729Z,99917.41
2023-05-05T22:18:56.330Z,99926.22
2023-05-05T22:21:22.858Z,99924.53
2023-05-05T22:23:49.474Z,99925.44
2023-05-05T22:26:15.992Z,99928.97
2023-05-05T22:28:42.701Z,99926.41
2023-05-05T22:31:09.331Z,99930.81
2023-05-05T22:33:36.241Z,99928.25
2023-05-05T22:36:02.857Z,99922.22
2023-05-05T22:38:29.384Z,99919.72
2023-05-05T22:40:56.107Z,99914.53
2023-05-05T22:43:22.648Z,99925.88
2023-05-05T22:45:49.331Z,99915.53
2023-05-05T22:48:15.861Z,99919.03
2023-05-05T22:50:42.428Z,99919.06
2023-05-05T22:53:08.954Z,99917.41
2023-05-05T22:55:35.495Z,99913.94
2023-05-05T22:58:02.117Z,99912.28
2023-05-05T23:00:28.973Z,99918.41
2023-05-05T23:02:55.742Z,99918.44
2023-05-05T23:05:22.444Z,99918.53
2023-05-05T23:07:49.011Z,99915.09
2023-05-05T23:10:15.688Z,99915.13
2023-05-05T23:12:42.487Z,99919.53
2023-05-05T23:15:09.901Z,99911.75
2023-05-05T23:17:36.756Z,99915.25
2023-05-05T23:20:04.317Z,99916.13
2023-05-05T23:22:30.871Z,99916.19
2023-05-05T23:24:57.411Z,99922.28
2023-05-05T23:27:24.012Z,99921.44
2023-05-05T23:29:50.696Z,99927.53
2023-05-05T23:32:17.628Z,99920.66
2023-05-05T23:34:44.213Z,99918.13
2023-05-05T23:37:12.607Z,99919.91
2023-05-05T23:39:39.150Z,99918.16
2023-05-05T23:42:05.698Z,99913.88
2023-05-05T23:44:32.241Z,99911.28
2023-05-05T23:46:58.798Z,99906.16
2023-05-05T23:49:26.397Z,99904.41
2023-05-05T23:51:52.918Z,99904.41
2023-05-05T23:54:19.585Z,99906.19
2023-05-05T23:56:47.772Z,99904.47
2023-05-05T23:59:14.389Z,99899.31
